Terminal Aerodrome Forecast
Issued by NWS

Home | Current Version | Previous Version | Text Only | Print | Product List | Glossary Off
Versions: 1 2 3 4 5 6 7 8 9 10 11 12 13 14 15 16 17 18 19 20 21 22

000
FTUS43 KICT 022332
TAFHUT
TAF
KHUT 022332Z 0300/0324 17013KT P6SM OVC100
     FM030400 18016G23KT 5SM BR BKN012 OVC100
     FM031400 23018G26KT P6SM SCT020 BKN250
     FM031800 36017G25KT P6SM BKN030 OVC250=

USA.gov is the U.S. government's official web portal to all federal, state and local government web resources and services.